Kezdőlap
METAR-TAF:

METAR-TAF

Repülőterek :

Monument Pass

Elbert, Colorado, Amerikai Egyesült Államok

földrajzi szélesség: 39-13-00N, földrajzi hosszúság: 104-38-02W, magasság: 2152 m

Jelenlegi meteorológiai megfigyelések

A jelentés 16 perccel ezelõtt készült, 06:55 UTC
Délnyugati szél 7 kt
Hőmérséklet 16°C
Páratartalom 42%
Légköri nyomás 1024 hPa
Látótávolság: 16.1 km
Derült ég

METAR: KMNH 240655Z AUTO 22007KT 10SM CLR 16/03 A3023 RMK AO2

Idő: 01:11 (07:11 UTC)


TAF: hiányzik

Meteorológiai megfigyelések és előrejelzések több, mint 4000 repülőtéren (METAR és TAF jelentéseket).

A térképen piros és sárga pontok jelzik az elérhető meteorológiai állomásokat.

Mozgassa az egeret a pont fölött, hogy megjelenjen az állomás neve.

Azután kattintson az időjárási megfigyelések és előrejelzések megtekintéséhez.

A térkép megváltoztatása: kattintson a fekete keresztel jelölt zöld gombra ráközelítéshez, a vonallal jelölt zöld gombra távolításhoz, vagy a zöld nyilakra a szomszédos térképek eléréséhez.


METAR-TAF: